createdAt,value
2018-10-01T20:22:26.142Z,27.00
2018-10-01T20:23:29.789Z,30.83
2018-10-01T20:24:33.522Z,22.30
2018-10-01T20:25:37.181Z,27.50
2018-10-01T20:26:41.046Z,32.67
2018-10-01T20:27:44.702Z,29.20
2018-10-01T20:28:48.732Z,27.03
2018-10-01T20:29:52.570Z,22.87
2018-10-01T20:30:56.182Z,27.43
2018-10-01T20:31:59.901Z,22.00
2018-10-01T20:33:03.598Z,25.73
2018-10-01T20:34:07.214Z,31.13
2018-10-01T20:35:10.909Z,30.20
2018-10-01T20:36:15.484Z,28.70
2018-10-01T20:37:19.262Z,24.20
2018-10-01T20:38:22.981Z,30.73
2018-10-01T20:39:26.841Z,31.50
2018-10-01T20:40:30.497Z,27.83
2018-10-01T20:41:34.509Z,32.13
2018-10-01T20:42:38.589Z,30.43
2018-10-01T20:43:42.733Z,29.03
2018-10-01T20:44:46.680Z,25.67
2018-10-01T20:45:50.874Z,24.63
2018-10-01T20:46:55.390Z,26.33
2018-10-01T20:47:59.307Z,29.87
2018-10-01T20:49:03.650Z,25.33
2018-10-01T20:50:07.427Z,27.97
2018-10-01T20:51:11.390Z,27.57
2018-10-01T20:52:15.621Z,27.53
2018-10-01T20:53:19.831Z,28.00
2018-10-01T20:54:23.671Z,28.37
2018-10-01T20:55:27.910Z,28.37
2018-10-01T20:56:32.115Z,32.93
2018-10-01T20:57:36.008Z,27.80
2018-10-01T20:58:40.898Z,30.60
2018-10-01T20:59:44.704Z,28.70
2018-10-01T21:00:48.839Z,27.57
2018-10-01T21:01:54.080Z,23.87
2018-10-01T21:02:58.079Z,28.43
2018-10-01T21:04:01.998Z,25.53
2018-10-01T21:05:06.039Z,27.17
2018-10-01T21:06:09.964Z,27.43
2018-10-01T21:07:13.848Z,25.70
2018-10-01T21:08:17.755Z,24.73
2018-10-01T21:09:21.844Z,28.80
2018-10-01T21:10:26.232Z,26.83
2018-10-01T21:11:30.267Z,26.53
2018-10-01T21:12:34.163Z,27.77
2018-10-01T21:13:37.846Z,29.87
2018-10-01T21:14:42.640Z,24.17
2018-10-01T21:15:46.683Z,25.63
2018-10-01T21:16:50.399Z,33.20
2018-10-01T21:17:54.132Z,27.37
2018-10-01T21:18:57.966Z,30.07
2018-10-01T21:20:01.756Z,26.33
2018-10-01T21:21:05.667Z,29.53
2018-10-01T21:22:09.556Z,24.00
2018-10-01T21:23:13.382Z,25.80
2018-10-01T21:24:17.342Z,27.67
2018-10-01T21:25:21.254Z,27.80
2018-10-01T21:26:25.931Z,26.23
2018-10-01T21:27:30.041Z,26.43
2018-10-01T21:28:34.041Z,24.67
2018-10-01T21:29:37.850Z,25.23
2018-10-01T21:30:41.769Z,26.87
2018-10-01T21:31:45.696Z,29.27
2018-10-01T21:32:49.596Z,25.13
2018-10-01T21:33:53.603Z,25.90
2018-10-01T21:34:57.199Z,32.17
2018-10-01T21:36:00.815Z,26.53
2018-10-01T21:37:04.719Z,24.17
2018-10-01T21:38:08.436Z,25.77
2018-10-01T21:40:23.119Z,23.80
2018-10-01T21:41:27.367Z,23.13
2018-10-01T21:42:31.213Z,26.50
2018-10-01T21:43:34.855Z,25.30
2018-10-01T21:44:38.662Z,27.10
2018-10-01T21:45:42.356Z,26.13
2018-10-01T21:46:45.968Z,26.03
2018-10-01T21:47:49.734Z,28.70
2018-10-01T21:48:53.618Z,26.67
2018-10-01T21:49:57.282Z,23.63
2018-10-01T21:51:01.232Z,25.67
2018-10-01T21:52:04.830Z,30.73
2018-10-01T21:53:08.786Z,26.30
2018-10-01T21:54:12.707Z,24.67
2018-10-01T21:55:16.620Z,26.83
2018-10-01T21:56:20.494Z,29.50
2018-10-01T21:57:26.105Z,25.87
2018-10-01T21:58:31.385Z,26.87
2018-10-01T21:59:35.788Z,25.83
2018-10-01T22:00:44.890Z,25.23
2018-10-01T22:01:52.866Z,30.70
2018-10-01T22:02:56.866Z,26.47
2018-10-01T22:04:01.440Z,29.37
2018-10-01T22:05:06.131Z,26.47
2018-10-01T22:06:09.826Z,25.70
2018-10-01T22:07:14.506Z,32.10
2018-10-01T22:08:18.990Z,26.53
2018-10-01T22:09:22.873Z,24.47
2018-10-01T22:10:26.885Z,28.80
2018-10-01T22:11:30.747Z,26.43
2018-10-01T22:12:34.850Z,37.43
2018-10-01T22:13:38.752Z,21.87
2018-10-01T22:14:42.667Z,22.83
2018-10-01T22:15:47.527Z,23.37
2018-10-01T22:16:51.398Z,21.53
2018-10-01T22:17:55.147Z,25.63
2018-10-01T22:18:59.501Z,23.37
2018-10-01T22:20:03.358Z,30.80
2018-10-01T22:21:07.674Z,27.93
2018-10-01T22:22:11.540Z,19.90
2018-10-01T22:23:16.531Z,22.63
2018-10-01T22:24:20.488Z,25.97
2018-10-01T22:25:24.383Z,24.67
2018-10-01T22:26:28.322Z,25.70
2018-10-01T22:27:32.324Z,25.17
2018-10-01T22:28:36.298Z,24.43
2018-10-01T22:29:40.301Z,26.43
2018-10-01T22:30:44.195Z,30.03
2018-10-01T22:31:48.089Z,25.87
2018-10-01T22:32:52.044Z,25.70
2018-10-01T22:33:56.752Z,21.20
2018-10-01T22:35:00.594Z,27.03
2018-10-01T22:36:04.494Z,26.00
2018-10-01T22:37:08.394Z,23.97
2018-10-01T22:38:12.214Z,28.80
2018-10-01T22:39:16.149Z,29.03
2018-10-01T22:40:19.995Z,30.33
2018-10-01T22:41:23.895Z,36.23
2018-10-01T22:42:27.488Z,27.07
2018-10-01T22:43:31.610Z,33.00
2018-10-01T22:44:35.318Z,34.10
2018-10-01T22:45:38.914Z,31.17
2018-10-01T22:46:42.508Z,30.97
2018-10-01T22:47:46.257Z,32.30
2018-10-01T22:48:49.850Z,29.17
2018-10-01T22:49:53.489Z,31.60
2018-10-01T22:50:57.154Z,29.57
2018-10-01T22:52:01.142Z,30.20
2018-10-01T22:53:05.742Z,32.53
2018-10-01T22:54:09.354Z,28.23
2018-10-01T22:55:13.042Z,32.60
2018-10-01T22:56:16.645Z,30.87
2018-10-01T22:57:20.264Z,31.87
2018-10-01T22:58:23.877Z,32.70
2018-10-01T22:59:27.485Z,28.17
2018-10-01T23:00:31.067Z,28.37
2018-10-01T23:01:34.726Z,28.70
2018-10-01T23:02:38.372Z,29.53
2018-10-01T23:03:42.191Z,24.63
2018-10-01T23:04:45.790Z,26.50
2018-10-01T23:05:49.440Z,28.53
2018-10-01T23:06:53.137Z,29.60
2018-10-01T23:07:56.727Z,29.53
2018-10-01T23:09:00.671Z,33.00
2018-10-01T23:10:04.328Z,23.17
2018-10-01T23:11:07.970Z,24.90
2018-10-01T23:12:11.799Z,28.30
2018-10-01T23:13:15.635Z,28.53
2018-10-01T23:14:19.501Z,28.30
2018-10-01T23:15:23.391Z,26.80
2018-10-01T23:16:27.330Z,32.93
2018-10-01T23:17:31.353Z,29.43
2018-10-01T23:18:35.186Z,34.80
2018-10-01T23:19:39.071Z,30.00
2018-10-01T23:20:42.896Z,27.87
2018-10-01T23:21:46.698Z,34.53
2018-10-01T23:22:50.737Z,29.17
2018-10-01T23:23:54.583Z,26.47
2018-10-01T23:24:58.486Z,35.30
2018-10-01T23:26:02.481Z,30.47
2018-10-01T23:27:06.309Z,31.53
2018-10-01T23:28:10.170Z,27.37
2018-10-01T23:29:14.068Z,29.30
2018-10-01T23:30:17.985Z,33.07
2018-10-01T23:31:21.851Z,39.87
2018-10-01T23:32:25.779Z,41.17
2018-10-01T23:33:29.646Z,30.53
2018-10-01T23:34:33.577Z,35.93
2018-10-01T23:35:37.574Z,39.27
2018-10-01T23:36:41.454Z,36.73
2018-10-01T23:37:45.574Z,31.63
2018-10-01T23:38:49.441Z,36.77
2018-10-01T23:39:53.497Z,33.40
2018-10-01T23:40:57.189Z,35.57
2018-10-01T23:42:01.034Z,38.43
2018-10-01T23:43:04.807Z,37.63
2018-10-01T23:44:08.686Z,42.67
2018-10-01T23:45:12.545Z,38.87
2018-10-01T23:46:16.494Z,39.33
2018-10-01T23:47:20.211Z,43.80
2018-10-01T23:48:24.115Z,42.40
2018-10-01T23:49:28.144Z,41.33
2018-10-01T23:50:32.124Z,49.87
2018-10-01T23:51:36.041Z,44.03
2018-10-01T23:52:39.983Z,43.63
2018-10-01T23:53:43.725Z,43.40
2018-10-01T23:54:47.586Z,40.87
2018-10-01T23:55:51.257Z,41.30
2018-10-01T23:56:55.277Z,41.37
2018-10-01T23:57:58.992Z,39.00
2018-10-01T23:59:03.056Z,40.60
